Date,TemperatureHighF,TemperatureAvgF,TemperatureLowF,DewpointHighF,DewpointAvgF,DewpointLowF,HumidityHigh,HumidityAvg,HumidityLow,PressureMaxIn,PressureMinIn,WindSpeedMaxMPH,WindSpeedAvgMPH,GustSpeedMaxMPH,PrecipitationSumIn
2013-9-1,82,75,69,74,71,67,94,87,74,29.87,29.75,7,1,17,0.27
2013-9-2,88,75,66,77,70,63,95,83,55,29.90,29.82,6,0,8,0.00
2013-9-3,85,71,60,68,63,59,95,80,49,30.04,29.90,4,0,8,0.00
2013-9-4,83,68,57,66,61,55,95,80,47,30.14,30.04,4,0,7,0.01
2013-9-5,82,67,54,68,61,53,95,81,53,30.18,30.11,5,0,7,0.01
2013-9-6,87,72,61,71,65,59,95,81,50,30.16,30.04,4,0,7,0.00
2013-9-7,89,72,59,73,65,58,95,81,52,30.07,29.95,5,0,9,0.00
2013-9-8,88,75,63,77,69,61,95,83,62,29.97,29.89,2,0,5,0.00
2013-9-9,92,80,71,77,72,69,95,79,53,30.00,29.92,4,0,9,0.00
2013-9-10,91,79,71,77,72,69,95,81,61,30.11,30.00,3,0,8,0.00
2013-9-11,94,76,67,79,70,65,95,84,56,30.14,30.04,3,0,10,0.82
2013-9-12,88,76,66,76,70,63,96,85,66,30.04,29.91,3,0,8,0.00
2013-9-13,75,65,54,63,57,52,92,77,50,30.05,29.97,8,1,13,0.00
2013-9-14,73,59,49,56,50,47,95,77,46,30.14,30.04,6,0,10,0.00
2013-9-15,82,62,46,63,54,44,95,78,42,30.10,30.04,5,1,11,0.00
2013-9-16,74,66,58,66,62,56,95,86,72,30.18,30.08,5,0,9,0.00
2013-9-17,80,68,61,69,63,59,94,84,61,30.19,30.07,6,1,8,0.00
2013-9-18,85,73,63,73,68,61,95,85,66,30.11,30.00,6,0,12,0.00
2013-9-19,86,75,68,75,70,66,94,85,65,30.07,29.93,6,1,13,0.00
2013-9-20,80,72,67,72,68,65,95,87,74,29.96,29.81,9,1,10,1.52
2013-9-21,76,63,52,66,55,50,95,77,44,29.90,29.80,6,1,11,0.08
2013-9-22,74,59,48,58,52,46,95,80,49,29.98,29.90,9,1,11,0.02
2013-9-23,76,60,46,62,53,44,95,82,52,30.01,29.92,5,0,9,0.00
2013-9-24,74,64,52,69,61,50,95,90,80,29.95,29.81,2,0,8,0.42
2013-9-25,79,67,58,69,63,56,96,88,66,29.86,29.79,5,0,9,0.01
2013-9-26,81,67,58,68,62,56,96,85,55,30.01,29.85,4,0,8,0.00
2013-9-27,79,64,52,63,57,51,96,81,48,30.11,30.01,5,0,8,0.01
2013-9-28,80,66,56,62,58,55,95,78,46,30.13,30.02,8,1,15,0.00
2013-9-29,67,63,62,62,60,58,95,90,76,30.05,29.97,2,0,8,0.71
2013-9-30,69,65,63,64,63,62,96,93,85,30.00,29.94,4,0,9,0.01